Kingsport, TN (37660)

10:30 AM EDT on September 02, 2015 (GMT -0400)
Holston Vally Hospital | | Change Station
CLOSE
Current Station
Personal Weather Station
Location: Kingsport, TN
Elevation: 1280 ft
Nearby Weather Stations

Elev 1280 ft 36.55 °N, 82.55 °W | Updated 9 seconds ago

Partly Cloudy
Partly Cloudy
80.2 °F
Feels Like 83 °F
N
2.0
Wind Variable Wind from SE
Gusts 4.0 mph

Today
High -- | Low -- °F
--% Chance of Precip.
Yesterday
High -- | Low -- °F
Precip. -- in
7:02 AM 7:57 PM
Waning Gibbous, 80% visible
Pressure 30.11 in
Visibility 10.0 miles
Clouds Scattered Clouds 25000 ft
Heat Index 83 °F
Dew Point 67 °F
Humidity 65%
Rainfall 0.00 in
Snow Depth Not available.
UV 3 out of 12
Pollen 9.00 out of 12
Air Quality Not available.
Flu Activity Not available.
METAR KTRI 021353Z 00000KT 10SM SCT250 24/19 A3018 RMK AO2 SLP195 T02390189
Pressure 30.11 in
Visibility 10.0 miles
Clouds Scattered Clouds 25000 ft
Heat Index 83 °F
Dew Point 67 °F
Humidity 65%
Rainfall 0.00 in
Snow Depth Not available.
UV 3 out of 12
Pollen 9.00 out of 12
Air Quality Not available.
Flu Activity Not available.
METAR KTRI 021353Z 00000KT 10SM SCT250 24/19 A3018 RMK AO2 SLP195 T02390189

10-Day Weather Forecast

×

Almanac

Astronomy

Sep. 02, 2015 Rise Set
Actual Time
Civil Twilight
Nautical Twilight
Astronomical Twilight
Moon
Length of Visible Light
Length of Day
Tomorrow will be .
, % of the Moon is Illuminated

Today's Extremes

State Highs State Lows

Community

WunderPhotos

Upload Photos

1,851,763 photos uploaded!

WunderBlogs® & News

Nearby

Air Quality

  Air Quality AQ Index Pollutant
Not available.

Snow Depth

Station Depth Elevation

Earthquake Activity

City Distance Mag. Time & Date
Minimum magnitude displayed is 2.5.

Coastal Water Temperatures

Place Temperature

Stations

Nearby Weather Stations

Station Location Temp. Windchill Dew Point Humidity Wind Precip. Elev Updated Type